sensor_id;sensor_type;location;lat;lon;timestamp;P1;durP1;ratioP1;P2;durP2;ratioP2
28958;SDS011;16066;0.000;0.000;2023-12-20T06:01:19;4.13;;;3.63;;
28958;SDS011;16066;0.000;0.000;2023-12-20T06:03:44;3.93;;;3.17;;
28958;SDS011;16066;0.000;0.000;2023-12-20T06:06:11;6.63;;;3.97;;
28958;SDS011;16066;0.000;0.000;2023-12-20T06:08:37;5.87;;;3.50;;
28958;SDS011;16066;0.000;0.000;2023-12-20T06:11:03;5.37;;;3.90;;
28958;SDS011;16066;0.000;0.000;2023-12-20T06:13:28;4.63;;;3.50;;
28958;SDS011;16066;0.000;0.000;2023-12-20T06:15:54;4.40;;;3.63;;
28958;SDS011;16066;0.000;0.000;2023-12-20T06:18:20;6.27;;;4.07;;
28958;SDS011;16066;0.000;0.000;2023-12-20T06:20:46;5.93;;;3.37;;
28958;SDS011;16066;0.000;0.000;2023-12-20T06:23:11;5.33;;;3.40;;
28958;SDS011;16066;0.000;0.000;2023-12-20T06:25:37;4.40;;;3.30;;
28958;SDS011;16066;0.000;0.000;2023-12-20T06:28:03;5.30;;;3.63;;
28958;SDS011;16066;0.000;0.000;2023-12-20T06:30:28;8.20;;;3.70;;
28958;SDS011;16066;0.000;0.000;2023-12-20T06:32:54;5.53;;;3.40;;
28958;SDS011;16066;0.000;0.000;2023-12-20T06:35:22;4.93;;;3.53;;
28958;SDS011;16066;0.000;0.000;2023-12-20T06:37:47;4.20;;;2.97;;
28958;SDS011;16066;0.000;0.000;2023-12-20T06:40:13;4.33;;;3.37;;
28958;SDS011;16066;0.000;0.000;2023-12-20T06:42:39;5.03;;;3.17;;
28958;SDS011;16066;0.000;0.000;2023-12-20T06:45:04;5.33;;;3.43;;
28958;SDS011;16066;0.000;0.000;2023-12-20T06:47:30;4.50;;;3.53;;
28958;SDS011;16066;0.000;0.000;2023-12-20T06:49:55;5.50;;;2.83;;
28958;SDS011;16066;0.000;0.000;2023-12-20T06:52:21;4.90;;;3.63;;
28958;SDS011;16066;0.000;0.000;2023-12-20T06:54:47;6.67;;;4.00;;
28958;SDS011;16066;0.000;0.000;2023-12-20T06:57:12;4.43;;;3.17;;
28958;SDS011;16066;0.000;0.000;2023-12-20T06:59:41;4.30;;;2.97;;
28958;SDS011;16066;0.000;0.000;2023-12-20T07:02:07;5.90;;;3.70;;
28958;SDS011;16066;0.000;0.000;2023-12-20T07:04:33;5.63;;;3.30;;
28958;SDS011;16066;0.000;0.000;2023-12-20T07:06:59;5.27;;;3.80;;
28958;SDS011;16066;0.000;0.000;2023-12-20T07:09:25;7.13;;;3.30;;
28958;SDS011;16066;0.000;0.000;2023-12-20T07:11:52;4.90;;;2.93;;
28958;SDS011;16066;0.000;0.000;2023-12-20T07:14:18;3.83;;;3.00;;
28958;SDS011;16066;0.000;0.000;2023-12-20T07:16:43;5.93;;;3.53;;
28958;SDS011;16066;0.000;0.000;2023-12-20T07:19:09;5.23;;;3.30;;
28958;SDS011;16066;0.000;0.000;2023-12-20T07:21:34;4.60;;;2.87;;
28958;SDS011;16066;0.000;0.000;2023-12-20T07:24:00;3.07;;;2.70;;
28958;SDS011;16066;0.000;0.000;2023-12-20T07:26:25;6.07;;;3.03;;
28958;SDS011;16066;0.000;0.000;2023-12-20T07:28:51;3.90;;;2.40;;
28958;SDS011;16066;0.000;0.000;2023-12-20T07:31:16;5.83;;;3.30;;
28958;SDS011;16066;0.000;0.000;2023-12-20T07:33:42;4.43;;;2.73;;
28958;SDS011;16066;0.000;0.000;2023-12-20T07:36:08;5.37;;;2.77;;
28958;SDS011;16066;0.000;0.000;2023-12-20T07:38:33;4.20;;;3.00;;
28958;SDS011;16066;0.000;0.000;2023-12-20T07:40:59;5.17;;;3.33;;
28958;SDS011;16066;0.000;0.000;2023-12-20T07:43:25;4.00;;;2.60;;
28958;SDS011;16066;0.000;0.000;2023-12-20T07:45:50;5.77;;;3.53;;
28958;SDS011;16066;0.000;0.000;2023-12-20T07:48:16;5.43;;;2.80;;
28958;SDS011;16066;0.000;0.000;2023-12-20T07:50:41;6.13;;;2.97;;
28958;SDS011;16066;0.000;0.000;2023-12-20T07:53:07;4.33;;;2.97;;
28958;SDS011;16066;0.000;0.000;2023-12-20T07:55:33;4.80;;;2.67;;
28958;SDS011;16066;0.000;0.000;2023-12-20T07:57:59;5.40;;;3.17;;
28958;SDS011;16066;0.000;0.000;2023-12-20T08:00:25;4.13;;;3.03;;
28958;SDS011;16066;0.000;0.000;2023-12-20T08:02:51;6.27;;;3.20;;
28958;SDS011;16066;0.000;0.000;2023-12-20T08:05:16;4.50;;;2.97;;
28958;SDS011;16066;0.000;0.000;2023-12-20T08:07:42;5.37;;;2.70;;
28958;SDS011;16066;0.000;0.000;2023-12-20T08:10:07;4.57;;;2.90;;
28958;SDS011;16066;0.000;0.000;2023-12-20T08:12:33;10.13;;;3.70;;
28958;SDS011;16066;0.000;0.000;2023-12-20T08:14:59;4.70;;;2.57;;
28958;SDS011;16066;0.000;0.000;2023-12-20T08:17:25;5.27;;;2.80;;
28958;SDS011;16066;0.000;0.000;2023-12-20T08:19:51;5.90;;;3.50;;
28958;SDS011;16066;0.000;0.000;2023-12-20T08:22:16;5.00;;;2.27;;
28958;SDS011;16066;0.000;0.000;2023-12-20T08:24:42;4.97;;;2.77;;
28958;SDS011;16066;0.000;0.000;2023-12-20T08:27:07;5.70;;;2.77;;
28958;SDS011;16066;0.000;0.000;2023-12-20T08:29:34;4.33;;;2.80;;
28958;SDS011;16066;0.000;0.000;2023-12-20T08:32:00;4.97;;;2.93;;
28958;SDS011;16066;0.000;0.000;2023-12-20T08:34:25;6.17;;;3.13;;
28958;SDS011;16066;0.000;0.000;2023-12-20T08:36:51;6.00;;;3.20;;
28958;SDS011;16066;0.000;0.000;2023-12-20T08:39:17;5.23;;;3.10;;
28958;SDS011;16066;0.000;0.000;2023-12-20T08:41:42;4.63;;;2.83;;
28958;SDS011;16066;0.000;0.000;2023-12-20T08:44:08;9.77;;;2.80;;
28958;SDS011;16066;0.000;0.000;2023-12-20T08:46:34;6.10;;;3.50;;
28958;SDS011;16066;0.000;0.000;2023-12-20T08:49:00;5.50;;;2.80;;
28958;SDS011;16066;0.000;0.000;2023-12-20T08:51:26;4.87;;;2.90;;
28958;SDS011;16066;0.000;0.000;2023-12-20T08:53:52;5.40;;;3.20;;
28958;SDS011;16066;0.000;0.000;2023-12-20T08:56:18;4.97;;;3.47;;
28958;SDS011;16066;0.000;0.000;2023-12-20T08:58:44;15.67;;;3.00;;
28958;SDS011;16066;0.000;0.000;2023-12-20T09:01:13;5.73;;;3.67;;
28958;SDS011;16066;0.000;0.000;2023-12-20T09:03:40;10.77;;;3.50;;
28958;SDS011;16066;0.000;0.000;2023-12-20T09:06:05;5.80;;;3.53;;
28958;SDS011;16066;0.000;0.000;2023-12-20T09:08:31;4.47;;;3.23;;
28958;SDS011;16066;0.000;0.000;2023-12-20T09:10:58;5.50;;;3.00;;
28958;SDS011;16066;0.000;0.000;2023-12-20T09:13:23;4.13;;;2.97;;
28958;SDS011;16066;0.000;0.000;2023-12-20T09:15:53;7.00;;;3.10;;
28958;SDS011;16066;0.000;0.000;2023-12-20T09:18:20;4.67;;;3.20;;
28958;SDS011;16066;0.000;0.000;2023-12-20T09:20:45;5.37;;;3.37;;
28958;SDS011;16066;0.000;0.000;2023-12-20T09:23:11;5.20;;;3.30;;
28958;SDS011;16066;0.000;0.000;2023-12-20T09:25:36;5.77;;;3.87;;
28958;SDS011;16066;0.000;0.000;2023-12-20T09:28:02;8.23;;;3.80;;
28958;SDS011;16066;0.000;0.000;2023-12-20T09:30:27;9.33;;;4.23;;
28958;SDS011;16066;0.000;0.000;2023-12-20T09:32:54;6.87;;;3.50;;
28958;SDS011;16066;0.000;0.000;2023-12-20T09:35:20;7.63;;;3.77;;
28958;SDS011;16066;0.000;0.000;2023-12-20T09:37:45;16.13;;;3.70;;
28958;SDS011;16066;0.000;0.000;2023-12-20T09:40:12;10.30;;;3.90;;
28958;SDS011;16066;0.000;0.000;2023-12-20T09:45:16;8.10;;;3.80;;
28958;SDS011;16066;0.000;0.000;2023-12-20T09:47:46;9.67;;;4.47;;
28958;SDS011;16066;0.000;0.000;2023-12-20T09:50:12;9.07;;;4.37;;
28958;SDS011;16066;0.000;0.000;2023-12-20T09:52:38;5.33;;;4.03;;
28958;SDS011;16066;0.000;0.000;2023-12-20T09:55:04;7.33;;;3.77;;
28958;SDS011;16066;0.000;0.000;2023-12-20T09:57:32;6.33;;;4.20;;
28958;SDS011;16066;0.000;0.000;2023-12-20T09:59:58;6.47;;;4.70;;
28958;SDS011;16066;0.000;0.000;2023-12-20T10:02:25;10.47;;;5.20;;
28958;SDS011;16066;0.000;0.000;2023-12-20T10:04:54;10.37;;;4.03;;
28958;SDS011;16066;0.000;0.000;2023-12-20T10:07:20;12.30;;;4.70;;
28958;SDS011;16066;0.000;0.000;2023-12-20T10:09:47;5.50;;;3.97;;
28958;SDS011;16066;0.000;0.000;2023-12-20T10:12:14;9.53;;;5.10;;
28958;SDS011;16066;0.000;0.000;2023-12-20T10:14:40;8.23;;;4.00;;
28958;SDS011;16066;0.000;0.000;2023-12-20T10:17:05;9.23;;;4.83;;
28958;SDS011;16066;0.000;0.000;2023-12-20T10:19:34;5.50;;;3.73;;
28958;SDS011;16066;0.000;0.000;2023-12-20T10:21:59;8.30;;;4.67;;
28958;SDS011;16066;0.000;0.000;2023-12-20T10:24:25;12.30;;;6.20;;
28958;SDS011;16066;0.000;0.000;2023-12-20T10:27:03;11.60;;;5.60;;
28958;SDS011;16066;0.000;0.000;2023-12-20T10:29:33;12.23;;;4.70;;
28958;SDS011;16066;0.000;0.000;2023-12-20T10:31:59;9.90;;;5.17;;
28958;SDS011;16066;0.000;0.000;2023-12-20T10:34:24;11.30;;;5.70;;
28958;SDS011;16066;0.000;0.000;2023-12-20T10:36:51;7.80;;;5.50;;
28958;SDS011;16066;0.000;0.000;2023-12-20T10:39:17;9.13;;;5.10;;
28958;SDS011;16066;0.000;0.000;2023-12-20T10:41:45;11.47;;;5.77;;
28958;SDS011;16066;0.000;0.000;2023-12-20T10:44:11;16.07;;;5.23;;
28958;SDS011;16066;0.000;0.000;2023-12-20T10:46:38;11.20;;;5.70;;
28958;SDS011;16066;0.000;0.000;2023-12-20T10:49:05;11.90;;;5.77;;
28958;SDS011;16066;0.000;0.000;2023-12-20T10:51:33;11.40;;;5.13;;
28958;SDS011;16066;0.000;0.000;2023-12-20T10:53:59;12.10;;;5.70;;
28958;SDS011;16066;0.000;0.000;2023-12-20T10:56:25;13.00;;;6.50;;
28958;SDS011;16066;0.000;0.000;2023-12-20T10:58:56;8.80;;;6.00;;
28958;SDS011;16066;0.000;0.000;2023-12-20T11:01:25;10.50;;;5.70;;
28958;SDS011;16066;0.000;0.000;2023-12-20T11:03:53;11.50;;;6.53;;
28958;SDS011;16066;0.000;0.000;2023-12-20T11:08:59;9.30;;;5.47;;
28958;SDS011;16066;0.000;0.000;2023-12-20T11:11:42;9.13;;;5.87;;
28958;SDS011;16066;0.000;0.000;2023-12-20T11:14:46;11.03;;;5.73;;
28958;SDS011;16066;0.000;0.000;2023-12-20T11:17:13;10.53;;;5.90;;
28958;SDS011;16066;0.000;0.000;2023-12-20T11:22:21;8.30;;;5.47;;
28958;SDS011;16066;0.000;0.000;2023-12-20T11:24:48;8.43;;;5.30;;
28958;SDS011;16066;0.000;0.000;2023-12-20T11:27:15;8.17;;;5.80;;
28958;SDS011;16066;0.000;0.000;2023-12-20T11:29:40;10.60;;;5.40;;
28958;SDS011;16066;0.000;0.000;2023-12-20T11:34:57;6.90;;;4.80;;
28958;SDS011;16066;0.000;0.000;2023-12-20T11:37:30;10.73;;;5.60;;
28958;SDS011;16066;0.000;0.000;2023-12-20T11:40:00;8.40;;;5.27;;
28958;SDS011;16066;0.000;0.000;2023-12-20T11:42:27;12.20;;;4.60;;
28958;SDS011;16066;0.000;0.000;2023-12-20T11:44:53;9.20;;;4.67;;
28958;SDS011;16066;0.000;0.000;2023-12-20T11:47:18;9.20;;;4.73;;
28958;SDS011;16066;0.000;0.000;2023-12-20T11:49:46;7.80;;;4.80;;
28958;SDS011;16066;0.000;0.000;2023-12-20T11:52:13;7.97;;;4.83;;
28958;SDS011;16066;0.000;0.000;2023-12-20T11:54:39;9.50;;;5.07;;
28958;SDS011;16066;0.000;0.000;2023-12-20T11:57:04;8.60;;;4.90;;
28958;SDS011;16066;0.000;0.000;2023-12-20T11:59:30;27.33;;;11.67;;
28958;SDS011;16066;0.000;0.000;2023-12-20T12:01:56;40.40;;;16.60;;
28958;SDS011;16066;0.000;0.000;2023-12-20T12:04:25;54.63;;;20.97;;
28958;SDS011;16066;0.000;0.000;2023-12-20T12:06:51;61.07;;;23.10;;
28958;SDS011;16066;0.000;0.000;2023-12-20T12:09:17;54.43;;;18.70;;
28958;SDS011;16066;0.000;0.000;2023-12-20T12:11:43;45.63;;;16.83;;
28958;SDS011;16066;0.000;0.000;2023-12-20T12:14:08;45.03;;;16.53;;
28958;SDS011;16066;0.000;0.000;2023-12-20T12:16:34;37.10;;;15.07;;
28958;SDS011;16066;0.000;0.000;2023-12-20T12:19:00;35.10;;;14.60;;
28958;SDS011;16066;0.000;0.000;2023-12-20T12:21:25;29.87;;;13.67;;
28958;SDS011;16066;0.000;0.000;2023-12-20T12:23:51;32.13;;;13.30;;
28958;SDS011;16066;0.000;0.000;2023-12-20T12:26:18;31.50;;;11.73;;
28958;SDS011;16066;0.000;0.000;2023-12-20T12:28:43;31.77;;;10.37;;
28958;SDS011;16066;0.000;0.000;2023-12-20T12:31:13;25.73;;;10.50;;
28958;SDS011;16066;0.000;0.000;2023-12-20T12:33:41;18.47;;;9.50;;
28958;SDS011;16066;0.000;0.000;2023-12-20T12:36:08;18.33;;;8.70;;
28958;SDS011;16066;0.000;0.000;2023-12-20T12:38:34;22.03;;;9.83;;
28958;SDS011;16066;0.000;0.000;2023-12-20T12:41:00;21.50;;;8.93;;
28958;SDS011;16066;0.000;0.000;2023-12-20T12:43:26;22.00;;;8.90;;
28958;SDS011;16066;0.000;0.000;2023-12-20T12:45:51;18.90;;;8.00;;
28958;SDS011;16066;0.000;0.000;2023-12-20T12:48:17;17.60;;;8.00;;
28958;SDS011;16066;0.000;0.000;2023-12-20T12:50:43;13.33;;;7.07;;
28958;SDS011;16066;0.000;0.000;2023-12-20T12:53:10;22.30;;;8.47;;
28958;SDS011;16066;0.000;0.000;2023-12-20T12:55:36;13.87;;;6.33;;
28958;SDS011;16066;0.000;0.000;2023-12-20T12:58:01;12.00;;;5.97;;
28958;SDS011;16066;0.000;0.000;2023-12-20T13:00:27;13.53;;;6.93;;
28958;SDS011;16066;0.000;0.000;2023-12-20T13:02:52;11.47;;;4.83;;
28958;SDS011;16066;0.000;0.000;2023-12-20T13:05:18;8.43;;;3.90;;
28958;SDS011;16066;0.000;0.000;2023-12-20T13:07:44;10.47;;;3.73;;
28958;SDS011;16066;0.000;0.000;2023-12-20T13:10:10;11.73;;;3.47;;
28958;SDS011;16066;0.000;0.000;2023-12-20T13:12:36;12.23;;;2.90;;
28958;SDS011;16066;0.000;0.000;2023-12-20T13:15:02;7.57;;;2.83;;
28958;SDS011;16066;0.000;0.000;2023-12-20T13:17:29;7.40;;;2.93;;
28958;SDS011;16066;0.000;0.000;2023-12-20T13:19:54;6.93;;;2.97;;
28958;SDS011;16066;0.000;0.000;2023-12-20T13:22:20;8.73;;;3.27;;
28958;SDS011;16066;0.000;0.000;2023-12-20T13:24:45;5.43;;;3.30;;
28958;SDS011;16066;0.000;0.000;2023-12-20T13:27:11;6.03;;;2.83;;
28958;SDS011;16066;0.000;0.000;2023-12-20T13:29:36;9.03;;;3.40;;
28958;SDS011;16066;0.000;0.000;2023-12-20T13:32:02;6.57;;;2.67;;
28958;SDS011;16066;0.000;0.000;2023-12-20T13:34:28;4.57;;;2.47;;
28958;SDS011;16066;0.000;0.000;2023-12-20T13:36:54;7.33;;;2.93;;
28958;SDS011;16066;0.000;0.000;2023-12-20T13:39:20;6.83;;;3.13;;
28958;SDS011;16066;0.000;0.000;2023-12-20T13:41:46;4.40;;;2.30;;
28958;SDS011;16066;0.000;0.000;2023-12-20T13:44:12;6.87;;;3.30;;
28958;SDS011;16066;0.000;0.000;2023-12-20T13:46:38;6.27;;;2.87;;
28958;SDS011;16066;0.000;0.000;2023-12-20T13:49:05;6.33;;;2.97;;
28958;SDS011;16066;0.000;0.000;2023-12-20T13:51:31;14.40;;;3.17;;
28958;SDS011;16066;0.000;0.000;2023-12-20T13:53:56;6.93;;;2.83;;
28958;SDS011;16066;0.000;0.000;2023-12-20T13:56:22;6.30;;;2.97;;
28958;SDS011;16066;0.000;0.000;2023-12-20T13:58:48;5.23;;;2.83;;
28958;SDS011;16066;0.000;0.000;2023-12-20T14:01:15;5.70;;;2.70;;
28958;SDS011;16066;0.000;0.000;2023-12-20T14:03:41;4.80;;;2.37;;
28958;SDS011;16066;0.000;0.000;2023-12-20T14:06:06;9.00;;;3.40;;
28958;SDS011;16066;0.000;0.000;2023-12-20T14:08:32;6.83;;;3.17;;
28958;SDS011;16066;0.000;0.000;2023-12-20T14:10:57;4.70;;;2.80;;
28958;SDS011;16066;0.000;0.000;2023-12-20T14:13:23;7.60;;;2.90;;
28958;SDS011;16066;0.000;0.000;2023-12-20T14:15:48;6.03;;;3.03;;
28958;SDS011;16066;0.000;0.000;2023-12-20T14:18:14;5.70;;;3.33;;
28958;SDS011;16066;0.000;0.000;2023-12-20T14:20:40;5.07;;;2.60;;
28958;SDS011;16066;0.000;0.000;2023-12-20T14:23:07;7.23;;;3.77;;
28958;SDS011;16066;0.000;0.000;2023-12-20T14:25:34;8.53;;;2.80;;
28958;SDS011;16066;0.000;0.000;2023-12-20T14:28:04;4.90;;;2.90;;
28958;SDS011;16066;0.000;0.000;2023-12-20T14:30:29;6.37;;;2.63;;
28958;SDS011;16066;0.000;0.000;2023-12-20T14:32:55;6.50;;;3.57;;
28958;SDS011;16066;0.000;0.000;2023-12-20T14:35:20;9.00;;;3.10;;
28958;SDS011;16066;0.000;0.000;2023-12-20T14:37:46;5.77;;;3.20;;
28958;SDS011;16066;0.000;0.000;2023-12-20T14:40:12;5.23;;;3.17;;
28958;SDS011;16066;0.000;0.000;2023-12-20T14:42:41;8.90;;;3.17;;
28958;SDS011;16066;0.000;0.000;2023-12-20T14:45:07;6.67;;;2.87;;
28958;SDS011;16066;0.000;0.000;2023-12-20T14:47:33;5.90;;;3.40;;
28958;SDS011;16066;0.000;0.000;2023-12-20T14:49:59;6.03;;;3.50;;
28958;SDS011;16066;0.000;0.000;2023-12-20T14:52:24;8.00;;;3.53;;
28958;SDS011;16066;0.000;0.000;2023-12-20T14:54:50;7.70;;;3.50;;
28958;SDS011;16066;0.000;0.000;2023-12-20T14:57:15;5.07;;;3.23;;
28958;SDS011;16066;0.000;0.000;2023-12-20T14:59:41;9.10;;;4.20;;
28958;SDS011;16066;0.000;0.000;2023-12-20T15:02:08;6.47;;;3.40;;
28958;SDS011;16066;0.000;0.000;2023-12-20T15:04:33;5.27;;;3.20;;
28958;SDS011;16066;0.000;0.000;2023-12-20T15:06:59;5.20;;;3.13;;
28958;SDS011;16066;0.000;0.000;2023-12-20T15:09:26;8.77;;;3.17;;
28958;SDS011;16066;0.000;0.000;2023-12-20T15:11:52;8.13;;;4.10;;
28958;SDS011;16066;0.000;0.000;2023-12-20T15:14:18;7.10;;;3.73;;
28958;SDS011;16066;0.000;0.000;2023-12-20T15:16:45;4.70;;;3.50;;
28958;SDS011;16066;0.000;0.000;2023-12-20T15:19:14;4.60;;;3.00;;
28958;SDS011;16066;0.000;0.000;2023-12-20T15:21:40;5.70;;;2.97;;
28958;SDS011;16066;0.000;0.000;2023-12-20T15:24:10;6.90;;;3.00;;
28958;SDS011;16066;0.000;0.000;2023-12-20T15:26:41;4.50;;;3.07;;
28958;SDS011;16066;0.000;0.000;2023-12-20T15:29:08;4.40;;;3.17;;
28958;SDS011;16066;0.000;0.000;2023-12-20T15:31:34;4.93;;;3.40;;
28958;SDS011;16066;0.000;0.000;2023-12-20T15:34:07;7.40;;;3.87;;
28958;SDS011;16066;0.000;0.000;2023-12-20T15:36:32;6.50;;;3.07;;
28958;SDS011;16066;0.000;0.000;2023-12-20T15:38:58;7.13;;;3.50;;
28958;SDS011;16066;0.000;0.000;2023-12-20T15:41:23;7.30;;;3.40;;
28958;SDS011;16066;0.000;0.000;2023-12-20T15:43:49;8.93;;;3.00;;
28958;SDS011;16066;0.000;0.000;2023-12-20T15:46:14;5.60;;;3.47;;
28958;SDS011;16066;0.000;0.000;2023-12-20T15:48:40;7.00;;;3.27;;
28958;SDS011;16066;0.000;0.000;2023-12-20T15:51:06;7.37;;;3.17;;
28958;SDS011;16066;0.000;0.000;2023-12-20T15:53:35;6.77;;;3.50;;
28958;SDS011;16066;0.000;0.000;2023-12-20T15:56:02;3.60;;;2.60;;
28958;SDS011;16066;0.000;0.000;2023-12-20T15:58:29;6.20;;;3.47;;
28958;SDS011;16066;0.000;0.000;2023-12-20T16:00:55;5.37;;;3.43;;
28958;SDS011;16066;0.000;0.000;2023-12-20T16:03:21;5.27;;;3.20;;
28958;SDS011;16066;0.000;0.000;2023-12-20T16:05:46;4.00;;;2.87;;
28958;SDS011;16066;0.000;0.000;2023-12-20T16:08:12;3.80;;;2.30;;
28958;SDS011;16066;0.000;0.000;2023-12-20T16:10:37;5.40;;;3.70;;
28958;SDS011;16066;0.000;0.000;2023-12-20T16:13:03;4.43;;;3.10;;
28958;SDS011;16066;0.000;0.000;2023-12-20T16:15:29;10.30;;;3.37;;
28958;SDS011;16066;0.000;0.000;2023-12-20T16:17:55;5.37;;;3.40;;
28958;SDS011;16066;0.000;0.000;2023-12-20T16:20:20;3.80;;;3.10;;
28958;SDS011;16066;0.000;0.000;2023-12-20T16:22:45;5.40;;;3.07;;
28958;SDS011;16066;0.000;0.000;2023-12-20T16:25:11;4.03;;;3.33;;
28958;SDS011;16066;0.000;0.000;2023-12-20T16:27:37;4.73;;;2.70;;
28958;SDS011;16066;0.000;0.000;2023-12-20T16:30:03;5.30;;;3.13;;
28958;SDS011;16066;0.000;0.000;2023-12-20T16:32:30;6.43;;;3.50;;
28958;SDS011;16066;0.000;0.000;2023-12-20T16:34:56;6.17;;;3.47;;
28958;SDS011;16066;0.000;0.000;2023-12-20T16:37:22;5.97;;;2.80;;
28958;SDS011;16066;0.000;0.000;2023-12-20T16:39:47;7.70;;;3.23;;
28958;SDS011;16066;0.000;0.000;2023-12-20T16:42:13;4.37;;;3.00;;
28958;SDS011;16066;0.000;0.000;2023-12-20T16:44:38;6.73;;;3.30;;
28958;SDS011;16066;0.000;0.000;2023-12-20T16:47:04;4.50;;;3.03;;
28958;SDS011;16066;0.000;0.000;2023-12-20T16:49:30;3.40;;;2.47;;
28958;SDS011;16066;0.000;0.000;2023-12-20T16:51:55;4.50;;;3.10;;
28958;SDS011;16066;0.000;0.000;2023-12-20T16:54:21;5.00;;;3.20;;
28958;SDS011;16066;0.000;0.000;2023-12-20T16:56:46;12.77;;;5.70;;
28958;SDS011;16066;0.000;0.000;2023-12-20T16:59:12;30.90;;;10.20;;
28958;SDS011;16066;0.000;0.000;2023-12-20T17:01:38;31.43;;;11.80;;
28958;SDS011;16066;0.000;0.000;2023-12-20T17:04:07;18.03;;;8.50;;
28958;SDS011;16066;0.000;0.000;2023-12-20T17:06:33;28.53;;;8.97;;
28958;SDS011;16066;0.000;0.000;2023-12-20T17:08:58;17.30;;;7.50;;
28958;SDS011;16066;0.000;0.000;2023-12-20T17:11:24;20.60;;;7.83;;
28958;SDS011;16066;0.000;0.000;2023-12-20T17:13:49;16.57;;;7.80;;
28958;SDS011;16066;0.000;0.000;2023-12-20T17:16:15;18.97;;;6.60;;
28958;SDS011;16066;0.000;0.000;2023-12-20T17:18:40;14.50;;;6.03;;
28958;SDS011;16066;0.000;0.000;2023-12-20T17:21:06;14.03;;;5.60;;
28958;SDS011;16066;0.000;0.000;2023-12-20T17:23:33;16.50;;;5.93;;
28958;SDS011;16066;0.000;0.000;2023-12-20T17:25:59;14.70;;;4.90;;
28958;SDS011;16066;0.000;0.000;2023-12-20T17:28:24;10.53;;;5.50;;
28958;SDS011;16066;0.000;0.000;2023-12-20T17:30:50;13.70;;;4.60;;
28958;SDS011;16066;0.000;0.000;2023-12-20T17:33:15;10.93;;;3.60;;
28958;SDS011;16066;0.000;0.000;2023-12-20T17:35:41;8.73;;;3.77;;
28958;SDS011;16066;0.000;0.000;2023-12-20T17:38:06;8.93;;;3.20;;
28958;SDS011;16066;0.000;0.000;2023-12-20T17:40:32;13.00;;;4.27;;
28958;SDS011;16066;0.000;0.000;2023-12-20T17:42:58;9.03;;;3.50;;
28958;SDS011;16066;0.000;0.000;2023-12-20T17:45:23;10.60;;;3.80;;
28958;SDS011;16066;0.000;0.000;2023-12-20T17:47:49;13.70;;;3.43;;
28958;SDS011;16066;0.000;0.000;2023-12-20T17:50:14;23.10;;;4.23;;
28958;SDS011;16066;0.000;0.000;2023-12-20T17:52:40;18.53;;;3.83;;
28958;SDS011;16066;0.000;0.000;2023-12-20T17:55:05;9.30;;;3.43;;
28958;SDS011;16066;0.000;0.000;2023-12-20T17:57:31;10.20;;;3.93;;
28958;SDS011;16066;0.000;0.000;2023-12-20T17:59:59;7.33;;;3.33;;
28958;SDS011;16066;0.000;0.000;2023-12-20T18:02:40;15.83;;;3.33;;
28958;SDS011;16066;0.000;0.000;2023-12-20T18:05:06;8.30;;;3.17;;
28958;SDS011;16066;0.000;0.000;2023-12-20T18:07:32;18.00;;;3.60;;
28958;SDS011;16066;0.000;0.000;2023-12-20T18:09:57;13.73;;;2.47;;
28958;SDS011;16066;0.000;0.000;2023-12-20T18:12:23;6.40;;;2.77;;
28958;SDS011;16066;0.000;0.000;2023-12-20T18:14:48;7.30;;;3.40;;
28958;SDS011;16066;0.000;0.000;2023-12-20T18:17:16;22.03;;;3.63;;
28958;SDS011;16066;0.000;0.000;2023-12-20T18:19:41;10.30;;;3.13;;
28958;SDS011;16066;0.000;0.000;2023-12-20T18:22:07;6.30;;;2.70;;
28958;SDS011;16066;0.000;0.000;2023-12-20T18:24:32;6.57;;;2.80;;
28958;SDS011;16066;0.000;0.000;2023-12-20T18:26:58;5.10;;;3.50;;
28958;SDS011;16066;0.000;0.000;2023-12-20T18:29:23;6.83;;;2.63;;
28958;SDS011;16066;0.000;0.000;2023-12-20T18:31:49;6.30;;;2.60;;
28958;SDS011;16066;0.000;0.000;2023-12-20T18:34:15;7.13;;;3.33;;
28958;SDS011;16066;0.000;0.000;2023-12-20T18:36:40;10.17;;;2.67;;
28958;SDS011;16066;0.000;0.000;2023-12-20T18:39:07;7.93;;;2.97;;
28958;SDS011;16066;0.000;0.000;2023-12-20T18:41:33;4.27;;;2.57;;
28958;SDS011;16066;0.000;0.000;2023-12-20T18:43:59;15.50;;;3.43;;
28958;SDS011;16066;0.000;0.000;2023-12-20T18:46:25;4.60;;;2.43;;
28958;SDS011;16066;0.000;0.000;2023-12-20T18:48:51;11.00;;;3.10;;
28958;SDS011;16066;0.000;0.000;2023-12-20T18:51:17;5.90;;;2.73;;
28958;SDS011;16066;0.000;0.000;2023-12-20T18:53:43;4.47;;;2.90;;
28958;SDS011;16066;0.000;0.000;2023-12-20T18:56:09;8.10;;;3.23;;
28958;SDS011;16066;0.000;0.000;2023-12-20T18:58:34;6.70;;;2.67;;
28958;SDS011;16066;0.000;0.000;2023-12-20T19:01:00;14.00;;;2.93;;
28958;SDS011;16066;0.000;0.000;2023-12-20T19:03:27;7.37;;;2.73;;
28958;SDS011;16066;0.000;0.000;2023-12-20T19:05:52;7.30;;;3.70;;
28958;SDS011;16066;0.000;0.000;2023-12-20T19:08:18;5.30;;;2.67;;
28958;SDS011;16066;0.000;0.000;2023-12-20T19:10:44;6.07;;;3.23;;
28958;SDS011;16066;0.000;0.000;2023-12-20T19:13:09;5.03;;;2.83;;
28958;SDS011;16066;0.000;0.000;2023-12-20T19:15:35;10.83;;;2.90;;
28958;SDS011;16066;0.000;0.000;2023-12-20T19:18:01;6.83;;;4.20;;
28958;SDS011;16066;0.000;0.000;2023-12-20T19:20:26;5.93;;;3.00;;
28958;SDS011;16066;0.000;0.000;2023-12-20T19:22:52;9.37;;;3.33;;
28958;SDS011;16066;0.000;0.000;2023-12-20T19:25:17;5.80;;;3.57;;
28958;SDS011;16066;0.000;0.000;2023-12-20T19:27:43;6.80;;;3.30;;
28958;SDS011;16066;0.000;0.000;2023-12-20T19:30:08;7.03;;;3.80;;
28958;SDS011;16066;0.000;0.000;2023-12-20T19:32:34;6.00;;;3.53;;
28958;SDS011;16066;0.000;0.000;2023-12-20T19:35:00;5.20;;;3.07;;
28958;SDS011;16066;0.000;0.000;2023-12-20T19:37:25;6.83;;;3.57;;
28958;SDS011;16066;0.000;0.000;2023-12-20T19:39:51;5.00;;;3.30;;
28958;SDS011;16066;0.000;0.000;2023-12-20T19:42:16;6.53;;;3.80;;
28958;SDS011;16066;0.000;0.000;2023-12-20T19:44:42;4.37;;;3.67;;
28958;SDS011;16066;0.000;0.000;2023-12-20T19:47:08;6.97;;;3.73;;
28958;SDS011;16066;0.000;0.000;2023-12-20T19:49:33;6.90;;;4.07;;
28958;SDS011;16066;0.000;0.000;2023-12-20T19:51:59;7.20;;;3.67;;
28958;SDS011;16066;0.000;0.000;2023-12-20T19:54:27;7.03;;;3.90;;
28958;SDS011;16066;0.000;0.000;2023-12-20T19:56:52;12.00;;;3.93;;
28958;SDS011;16066;0.000;0.000;2023-12-20T19:59:17;6.03;;;4.17;;
28958;SDS011;16066;0.000;0.000;2023-12-20T20:01:43;8.87;;;3.80;;
28958;SDS011;16066;0.000;0.000;2023-12-20T20:04:09;6.70;;;4.07;;
28958;SDS011;16066;0.000;0.000;2023-12-20T20:06:35;6.63;;;3.90;;
28958;SDS011;16066;0.000;0.000;2023-12-20T20:09:01;9.03;;;4.00;;
28958;SDS011;16066;0.000;0.000;2023-12-20T20:11:27;7.37;;;4.10;;
28958;SDS011;16066;0.000;0.000;2023-12-20T20:13:53;7.27;;;4.33;;
28958;SDS011;16066;0.000;0.000;2023-12-20T20:16:21;7.10;;;4.20;;
28958;SDS011;16066;0.000;0.000;2023-12-20T20:18:49;7.10;;;4.33;;
28958;SDS011;16066;0.000;0.000;2023-12-20T20:21:15;5.63;;;4.00;;
28958;SDS011;16066;0.000;0.000;2023-12-20T20:23:40;4.87;;;3.90;;
28958;SDS011;16066;0.000;0.000;2023-12-20T20:26:06;6.17;;;4.00;;
28958;SDS011;16066;0.000;0.000;2023-12-20T20:28:31;7.87;;;4.10;;
28958;SDS011;16066;0.000;0.000;2023-12-20T20:30:57;7.40;;;4.23;;
28958;SDS011;16066;0.000;0.000;2023-12-20T20:33:23;6.90;;;4.23;;
28958;SDS011;16066;0.000;0.000;2023-12-20T20:35:50;7.60;;;4.77;;
28958;SDS011;16066;0.000;0.000;2023-12-20T20:38:16;10.60;;;4.70;;
28958;SDS011;16066;0.000;0.000;2023-12-20T20:40:41;7.83;;;5.10;;
28958;SDS011;16066;0.000;0.000;2023-12-20T20:43:07;6.00;;;4.43;;
28958;SDS011;16066;0.000;0.000;2023-12-20T20:45:32;8.20;;;4.37;;
28958;SDS011;16066;0.000;0.000;2023-12-20T20:47:58;7.33;;;5.13;;
28958;SDS011;16066;0.000;0.000;2023-12-20T20:50:23;8.27;;;4.60;;
28958;SDS011;16066;0.000;0.000;2023-12-20T20:52:49;8.27;;;5.63;;
28958;SDS011;16066;0.000;0.000;2023-12-20T20:55:14;9.00;;;6.27;;
28958;SDS011;16066;0.000;0.000;2023-12-20T20:57:40;11.50;;;6.90;;
28958;SDS011;16066;0.000;0.000;2023-12-20T21:00:06;10.07;;;6.83;;
28958;SDS011;16066;0.000;0.000;2023-12-20T21:02:32;12.40;;;6.83;;